sensor_id;sensor_type;location;lat;lon;timestamp;temperature;humidity
37658;DHT22;23500;53.268;8.308;2022-09-03T00:00:36;21.00;57.40
37658;DHT22;23500;53.268;8.308;2022-09-03T00:03:12;20.90;58.70
37658;DHT22;23500;53.268;8.308;2022-09-03T00:06:03;20.90;58.10
37658;DHT22;23500;53.268;8.308;2022-09-03T00:11:18;20.90;57.60
37658;DHT22;23500;53.268;8.308;2022-09-03T00:13:53;20.90;58.90
37658;DHT22;23500;53.268;8.308;2022-09-03T00:16:21;20.90;58.40
37658;DHT22;23500;53.268;8.308;2022-09-03T00:19:00;20.90;58.30
37658;DHT22;23500;53.268;8.308;2022-09-03T00:21:35;20.90;58.80
37658;DHT22;23500;53.268;8.308;2022-09-03T00:24:04;20.90;58.60
37658;DHT22;23500;53.268;8.308;2022-09-03T00:26:33;20.90;59.10
37658;DHT22;23500;53.268;8.308;2022-09-03T00:29:23;20.90;59.10
37658;DHT22;23500;53.268;8.308;2022-09-03T00:31:53;20.90;58.30
37658;DHT22;23500;53.268;8.308;2022-09-03T00:34:35;20.80;59.10
37658;DHT22;23500;53.268;8.308;2022-09-03T00:37:04;20.80;58.80
37658;DHT22;23500;53.268;8.308;2022-09-03T00:39:30;20.80;58.70
37658;DHT22;23500;53.268;8.308;2022-09-03T00:44:58;20.80;57.70
37658;DHT22;23500;53.268;8.308;2022-09-03T00:56:03;20.80;59.30
37658;DHT22;23500;53.268;8.308;2022-09-03T01:00:59;20.70;59.30
37658;DHT22;23500;53.268;8.308;2022-09-03T01:03:48;20.70;59.00
37658;DHT22;23500;53.268;8.308;2022-09-03T01:06:18;20.70;58.80
37658;DHT22;23500;53.268;8.308;2022-09-03T01:14:30;20.70;60.00
37658;DHT22;23500;53.268;8.308;2022-09-03T01:17:35;20.60;58.60
37658;DHT22;23500;53.268;8.308;2022-09-03T01:25:52;20.60;58.60
37658;DHT22;23500;53.268;8.308;2022-09-03T01:28:25;20.60;58.70
37658;DHT22;23500;53.268;8.308;2022-09-03T01:39:27;20.50;58.80
37658;DHT22;23500;53.268;8.308;2022-09-03T01:48:13;20.50;59.10
37658;DHT22;23500;53.268;8.308;2022-09-03T01:56:16;20.40;60.20
37658;DHT22;23500;53.268;8.308;2022-09-03T01:58:51;20.40;59.70
37658;DHT22;23500;53.268;8.308;2022-09-03T02:01:31;20.40;60.90
37658;DHT22;23500;53.268;8.308;2022-09-03T02:03:58;20.40;60.60
37658;DHT22;23500;53.268;8.308;2022-09-03T02:06:26;20.40;59.90
37658;DHT22;23500;53.268;8.308;2022-09-03T02:08:52;20.40;59.80
37658;DHT22;23500;53.268;8.308;2022-09-03T02:11:18;20.40;61.10
37658;DHT22;23500;53.268;8.308;2022-09-03T02:13:48;20.40;61.00
37658;DHT22;23500;53.268;8.308;2022-09-03T02:16:24;20.40;60.00
37658;DHT22;23500;53.268;8.308;2022-09-03T02:18:55;20.40;60.10
37658;DHT22;23500;53.268;8.308;2022-09-03T02:21:23;20.40;60.00
37658;DHT22;23500;53.268;8.308;2022-09-03T02:23:50;20.40;60.70
37658;DHT22;23500;53.268;8.308;2022-09-03T02:26:20;20.40;60.40
37658;DHT22;23500;53.268;8.308;2022-09-03T02:28:47;20.40;60.70
37658;DHT22;23500;53.268;8.308;2022-09-03T02:31:13;20.30;60.00
37658;DHT22;23500;53.268;8.308;2022-09-03T02:33:41;20.30;60.90
37658;DHT22;23500;53.268;8.308;2022-09-03T02:36:10;20.30;60.00
37658;DHT22;23500;53.268;8.308;2022-09-03T02:38:37;20.30;60.00
37658;DHT22;23500;53.268;8.308;2022-09-03T02:41:03;20.30;60.80
37658;DHT22;23500;53.268;8.308;2022-09-03T02:43:38;20.30;60.50
37658;DHT22;23500;53.268;8.308;2022-09-03T02:46:08;20.30;60.40
37658;DHT22;23500;53.268;8.308;2022-09-03T02:48:34;20.30;61.00
37658;DHT22;23500;53.268;8.308;2022-09-03T02:51:00;20.20;60.00
37658;DHT22;23500;53.268;8.308;2022-09-03T02:53:26;20.30;60.70
37658;DHT22;23500;53.268;8.308;2022-09-03T02:56:00;20.30;60.40
37658;DHT22;23500;53.268;8.308;2022-09-03T02:58:27;20.30;61.10
37658;DHT22;23500;53.268;8.308;2022-09-03T03:00:53;20.20;61.20
37658;DHT22;23500;53.268;8.308;2022-09-03T03:03:19;20.30;60.60
37658;DHT22;23500;53.268;8.308;2022-09-03T03:05:51;20.20;61.00
37658;DHT22;23500;53.268;8.308;2022-09-03T03:08:18;20.20;61.50
37658;DHT22;23500;53.268;8.308;2022-09-03T03:10:46;20.20;61.70
37658;DHT22;23500;53.268;8.308;2022-09-03T03:13:14;20.20;60.60
37658;DHT22;23500;53.268;8.308;2022-09-03T03:15:41;20.20;60.70
37658;DHT22;23500;53.268;8.308;2022-09-03T03:18:07;20.20;61.30
37658;DHT22;23500;53.268;8.308;2022-09-03T03:20:37;20.20;61.90
37658;DHT22;23500;53.268;8.308;2022-09-03T03:23:03;20.20;61.20
37658;DHT22;23500;53.268;8.308;2022-09-03T03:25:33;20.20;60.70
37658;DHT22;23500;53.268;8.308;2022-09-03T03:27:59;20.20;61.10
37658;DHT22;23500;53.268;8.308;2022-09-03T03:30:25;20.20;60.50
37658;DHT22;23500;53.268;8.308;2022-09-03T03:32:55;20.20;61.40
37658;DHT22;23500;53.268;8.308;2022-09-03T03:35:21;20.20;62.00
37658;DHT22;23500;53.268;8.308;2022-09-03T03:37:47;20.10;61.10
37658;DHT22;23500;53.268;8.308;2022-09-03T03:40:13;20.10;61.70
37658;DHT22;23500;53.268;8.308;2022-09-03T03:42:39;20.10;61.30
37658;DHT22;23500;53.268;8.308;2022-09-03T03:45:05;20.10;60.00
37658;DHT22;23500;53.268;8.308;2022-09-03T03:47:32;20.10;61.00
37658;DHT22;23500;53.268;8.308;2022-09-03T03:49:58;20.10;61.00
37658;DHT22;23500;53.268;8.308;2022-09-03T03:52:25;20.00;60.70
37658;DHT22;23500;53.268;8.308;2022-09-03T03:54:52;20.00;61.20
37658;DHT22;23500;53.268;8.308;2022-09-03T03:57:18;20.00;61.40
37658;DHT22;23500;53.268;8.308;2022-09-03T03:59:45;20.00;61.90
37658;DHT22;23500;53.268;8.308;2022-09-03T04:02:11;20.00;61.20
37658;DHT22;23500;53.268;8.308;2022-09-03T04:04:37;20.00;61.60
37658;DHT22;23500;53.268;8.308;2022-09-03T04:07:03;20.00;62.00
37658;DHT22;23500;53.268;8.308;2022-09-03T04:09:28;20.00;60.60
37658;DHT22;23500;53.268;8.308;2022-09-03T04:11:54;20.00;60.70
37658;DHT22;23500;53.268;8.308;2022-09-03T04:14:22;20.00;61.20
37658;DHT22;23500;53.268;8.308;2022-09-03T04:16:48;20.00;62.10
37658;DHT22;23500;53.268;8.308;2022-09-03T04:19:15;20.00;61.70
37658;DHT22;23500;53.268;8.308;2022-09-03T04:21:42;19.90;62.20
37658;DHT22;23500;53.268;8.308;2022-09-03T04:24:07;19.90;60.90
37658;DHT22;23500;53.268;8.308;2022-09-03T04:26:33;19.90;61.70
37658;DHT22;23500;53.268;8.308;2022-09-03T04:29:02;19.90;60.50
37658;DHT22;23500;53.268;8.308;2022-09-03T04:31:28;19.90;61.40
37658;DHT22;23500;53.268;8.308;2022-09-03T04:33:53;19.90;61.60
37658;DHT22;23500;53.268;8.308;2022-09-03T04:36:25;19.90;60.90
37658;DHT22;23500;53.268;8.308;2022-09-03T04:38:52;19.80;62.10
37658;DHT22;23500;53.268;8.308;2022-09-03T04:41:26;19.80;62.10
37658;DHT22;23500;53.268;8.308;2022-09-03T04:43:53;19.80;62.30
37658;DHT22;23500;53.268;8.308;2022-09-03T04:46:21;19.80;62.20
37658;DHT22;23500;53.268;8.308;2022-09-03T04:48:49;19.80;62.10
37658;DHT22;23500;53.268;8.308;2022-09-03T04:51:17;19.80;62.30
37658;DHT22;23500;53.268;8.308;2022-09-03T04:53:45;19.80;62.10
37658;DHT22;23500;53.268;8.308;2022-09-03T04:56:13;19.80;62.60
37658;DHT22;23500;53.268;8.308;2022-09-03T04:58:40;19.80;62.80
37658;DHT22;23500;53.268;8.308;2022-09-03T05:01:15;19.80;62.60
37658;DHT22;23500;53.268;8.308;2022-09-03T05:03:41;19.80;61.40
37658;DHT22;23500;53.268;8.308;2022-09-03T05:06:07;19.80;62.80
37658;DHT22;23500;53.268;8.308;2022-09-03T05:08:34;19.80;62.40
37658;DHT22;23500;53.268;8.308;2022-09-03T05:11:05;19.80;62.80
37658;DHT22;23500;53.268;8.308;2022-09-03T05:13:31;19.80;62.80
37658;DHT22;23500;53.268;8.308;2022-09-03T05:16:09;19.80;62.70
37658;DHT22;23500;53.268;8.308;2022-09-03T05:18:36;19.90;62.50
37658;DHT22;23500;53.268;8.308;2022-09-03T05:21:04;19.80;62.10
37658;DHT22;23500;53.268;8.308;2022-09-03T05:23:31;19.80;62.40
37658;DHT22;23500;53.268;8.308;2022-09-03T05:25:58;19.90;63.40
37658;DHT22;23500;53.268;8.308;2022-09-03T05:28:26;19.90;63.00
37658;DHT22;23500;53.268;8.308;2022-09-03T05:31:02;19.90;63.30
37658;DHT22;23500;53.268;8.308;2022-09-03T05:33:28;19.90;62.80
37658;DHT22;23500;53.268;8.308;2022-09-03T05:35:59;19.90;62.60
37658;DHT22;23500;53.268;8.308;2022-09-03T05:38:25;19.90;63.10
37658;DHT22;23500;53.268;8.308;2022-09-03T05:40:51;19.90;63.30
37658;DHT22;23500;53.268;8.308;2022-09-03T05:43:16;19.90;62.80
37658;DHT22;23500;53.268;8.308;2022-09-03T05:45:42;20.00;62.90
37658;DHT22;23500;53.268;8.308;2022-09-03T05:48:07;20.00;60.60
37658;DHT22;23500;53.268;8.308;2022-09-03T05:50:33;20.00;61.70
37658;DHT22;23500;53.268;8.308;2022-09-03T05:52:59;20.10;61.20
37658;DHT22;23500;53.268;8.308;2022-09-03T05:55:24;20.10;61.10
37658;DHT22;23500;53.268;8.308;2022-09-03T05:57:52;20.20;60.70
37658;DHT22;23500;53.268;8.308;2022-09-03T06:00:18;20.20;60.90
37658;DHT22;23500;53.268;8.308;2022-09-03T06:02:51;20.20;61.20
37658;DHT22;23500;53.268;8.308;2022-09-03T06:05:17;20.30;62.80
37658;DHT22;23500;53.268;8.308;2022-09-03T06:07:44;20.30;62.20
37658;DHT22;23500;53.268;8.308;2022-09-03T06:10:13;20.30;61.10
37658;DHT22;23500;53.268;8.308;2022-09-03T06:12:41;20.30;60.30
37658;DHT22;23500;53.268;8.308;2022-09-03T06:15:07;20.40;61.00
37658;DHT22;23500;53.268;8.308;2022-09-03T06:17:33;20.40;62.00
37658;DHT22;23500;53.268;8.308;2022-09-03T06:19:59;20.40;61.10
37658;DHT22;23500;53.268;8.308;2022-09-03T06:22:24;20.40;61.40
37658;DHT22;23500;53.268;8.308;2022-09-03T06:24:52;20.40;61.70
37658;DHT22;23500;53.268;8.308;2022-09-03T06:27:18;20.40;63.40
37658;DHT22;23500;53.268;8.308;2022-09-03T06:29:45;20.50;61.80
37658;DHT22;23500;53.268;8.308;2022-09-03T06:32:11;20.50;62.50
37658;DHT22;23500;53.268;8.308;2022-09-03T06:34:37;20.50;60.80
37658;DHT22;23500;53.268;8.308;2022-09-03T06:37:02;20.50;61.50
37658;DHT22;23500;53.268;8.308;2022-09-03T06:39:28;20.50;62.50
37658;DHT22;23500;53.268;8.308;2022-09-03T06:41:54;20.50;61.50
37658;DHT22;23500;53.268;8.308;2022-09-03T06:44:20;20.50;59.40
37658;DHT22;23500;53.268;8.308;2022-09-03T06:46:45;20.60;61.20
37658;DHT22;23500;53.268;8.308;2022-09-03T06:49:13;20.60;61.00
37658;DHT22;23500;53.268;8.308;2022-09-03T06:51:39;20.60;61.90
37658;DHT22;23500;53.268;8.308;2022-09-03T06:54:10;20.60;61.90
37658;DHT22;23500;53.268;8.308;2022-09-03T06:56:37;20.70;63.60
37658;DHT22;23500;53.268;8.308;2022-09-03T06:59:13;20.70;60.60
37658;DHT22;23500;53.268;8.308;2022-09-03T07:01:41;20.70;60.40
37658;DHT22;23500;53.268;8.308;2022-09-03T07:04:08;20.70;61.20
37658;DHT22;23500;53.268;8.308;2022-09-03T07:06:36;20.80;62.40
37658;DHT22;23500;53.268;8.308;2022-09-03T07:09:06;20.80;62.00
37658;DHT22;23500;53.268;8.308;2022-09-03T07:11:32;20.80;57.90
37658;DHT22;23500;53.268;8.308;2022-09-03T07:14:00;20.90;61.90
37658;DHT22;23500;53.268;8.308;2022-09-03T07:16:28;20.90;62.10
37658;DHT22;23500;53.268;8.308;2022-09-03T07:18:55;20.90;59.00
37658;DHT22;23500;53.268;8.308;2022-09-03T07:21:26;20.90;59.70
37658;DHT22;23500;53.268;8.308;2022-09-03T07:23:53;20.90;63.10
37658;DHT22;23500;53.268;8.308;2022-09-03T07:26:25;21.00;62.10
37658;DHT22;23500;53.268;8.308;2022-09-03T07:28:51;21.00;62.10
37658;DHT22;23500;53.268;8.308;2022-09-03T07:31:27;21.10;62.40
37658;DHT22;23500;53.268;8.308;2022-09-03T07:33:57;21.10;62.30
37658;DHT22;23500;53.268;8.308;2022-09-03T07:36:25;21.20;60.20
37658;DHT22;23500;53.268;8.308;2022-09-03T07:38:57;21.20;60.10
37658;DHT22;23500;53.268;8.308;2022-09-03T07:41:24;21.30;61.00
37658;DHT22;23500;53.268;8.308;2022-09-03T07:43:51;21.30;61.80
37658;DHT22;23500;53.268;8.308;2022-09-03T07:46:19;21.40;61.80
37658;DHT22;23500;53.268;8.308;2022-09-03T07:48:51;21.40;61.60
37658;DHT22;23500;53.268;8.308;2022-09-03T07:51:19;21.40;61.30
37658;DHT22;23500;53.268;8.308;2022-09-03T07:53:46;21.50;59.20
37658;DHT22;23500;53.268;8.308;2022-09-03T07:56:12;21.50;59.80
37658;DHT22;23500;53.268;8.308;2022-09-03T07:58:39;21.60;61.30
37658;DHT22;23500;53.268;8.308;2022-09-03T08:01:13;21.60;61.80
37658;DHT22;23500;53.268;8.308;2022-09-03T08:03:42;21.60;58.50
37658;DHT22;23500;53.268;8.308;2022-09-03T08:06:09;21.70;60.20
37658;DHT22;23500;53.268;8.308;2022-09-03T08:08:36;21.70;58.90
37658;DHT22;23500;53.268;8.308;2022-09-03T08:11:14;21.70;61.20
37658;DHT22;23500;53.268;8.308;2022-09-03T08:13:41;21.70;61.00
37658;DHT22;23500;53.268;8.308;2022-09-03T08:16:08;21.80;59.70
37658;DHT22;23500;53.268;8.308;2022-09-03T08:18:35;21.80;60.30
37658;DHT22;23500;53.268;8.308;2022-09-03T08:21:12;21.80;61.50
37658;DHT22;23500;53.268;8.308;2022-09-03T08:23:46;21.80;61.20
37658;DHT22;23500;53.268;8.308;2022-09-03T08:26:13;21.90;61.10
37658;DHT22;23500;53.268;8.308;2022-09-03T08:28:40;21.90;61.00
37658;DHT22;23500;53.268;8.308;2022-09-03T08:33:42;21.90;61.50
37658;DHT22;23500;53.268;8.308;2022-09-03T08:36:10;21.90;61.70
37658;DHT22;23500;53.268;8.308;2022-09-03T08:38:37;21.90;62.50
37658;DHT22;23500;53.268;8.308;2022-09-03T08:41:11;21.90;62.90
37658;DHT22;23500;53.268;8.308;2022-09-03T08:44:03;21.90;62.90
37658;DHT22;23500;53.268;8.308;2022-09-03T08:52:00;21.90;62.70
37658;DHT22;23500;53.268;8.308;2022-09-03T08:54:29;21.90;62.50
37658;DHT22;23500;53.268;8.308;2022-09-03T08:56:59;21.90;63.40
37658;DHT22;23500;53.268;8.308;2022-09-03T08:59:26;21.90;63.40
37658;DHT22;23500;53.268;8.308;2022-09-03T09:02:03;21.90;63.50
37658;DHT22;23500;53.268;8.308;2022-09-03T09:04:58;21.90;64.00
37658;DHT22;23500;53.268;8.308;2022-09-03T09:10:09;21.80;63.50
37658;DHT22;23500;53.268;8.308;2022-09-03T09:12:46;21.80;63.70
37658;DHT22;23500;53.268;8.308;2022-09-03T09:15:27;21.80;63.70
37658;DHT22;23500;53.268;8.308;2022-09-03T09:21:05;21.80;64.00
37658;DHT22;23500;53.268;8.308;2022-09-03T09:23:45;21.80;63.60
37658;DHT22;23500;53.268;8.308;2022-09-03T09:26:15;21.80;63.90
37658;DHT22;23500;53.268;8.308;2022-09-03T09:28:49;21.80;63.90
37658;DHT22;23500;53.268;8.308;2022-09-03T09:31:18;21.80;63.90
37658;DHT22;23500;53.268;8.308;2022-09-03T09:33:44;21.80;63.90
37658;DHT22;23500;53.268;8.308;2022-09-03T09:36:13;21.80;63.90
37658;DHT22;23500;53.268;8.308;2022-09-03T09:38:44;21.80;63.90
37658;DHT22;23500;53.268;8.308;2022-09-03T09:43:42;21.80;63.90
37658;DHT22;23500;53.268;8.308;2022-09-03T09:46:12;21.80;63.90
37658;DHT22;23500;53.268;8.308;2022-09-03T09:48:51;21.80;63.90
37658;DHT22;23500;53.268;8.308;2022-09-03T09:51:19;21.80;63.00
37658;DHT22;23500;53.268;8.308;2022-09-03T09:53:45;21.80;63.20
37658;DHT22;23500;53.268;8.308;2022-09-03T09:56:24;21.80;60.80
37658;DHT22;23500;53.268;8.308;2022-09-03T09:59:04;21.80;63.50
37658;DHT22;23500;53.268;8.308;2022-09-03T10:01:30;21.80;63.70
37658;DHT22;23500;53.268;8.308;2022-09-03T10:03:58;21.80;63.50
37658;DHT22;23500;53.268;8.308;2022-09-03T10:06:27;21.80;63.70
37658;DHT22;23500;53.268;8.308;2022-09-03T10:09:17;21.80;63.70
37658;DHT22;23500;53.268;8.308;2022-09-03T10:14:52;21.80;63.50
37658;DHT22;23500;53.268;8.308;2022-09-03T10:17:27;21.80;63.70
37658;DHT22;23500;53.268;8.308;2022-09-03T10:26:24;21.80;64.40
37658;DHT22;23500;53.268;8.308;2022-09-03T10:28:33;21.80;63.60
37658;DHT22;23500;53.268;8.308;2022-09-03T10:33:53;21.80;63.60
37658;DHT22;23500;53.268;8.308;2022-09-03T10:36:24;21.80;63.60
37658;DHT22;23500;53.268;8.308;2022-09-03T10:39:16;21.80;63.60
37658;DHT22;23500;53.268;8.308;2022-09-03T10:45:02;21.80;62.00
37658;DHT22;23500;53.268;8.308;2022-09-03T10:47:56;21.80;63.20
37658;DHT22;23500;53.268;8.308;2022-09-03T10:50:51;21.80;63.50
37658;DHT22;23500;53.268;8.308;2022-09-03T10:53:38;21.80;63.60
37658;DHT22;23500;53.268;8.308;2022-09-03T10:56:24;21.80;63.50
37658;DHT22;23500;53.268;8.308;2022-09-03T10:59:08;21.80;63.50
37658;DHT22;23500;53.268;8.308;2022-09-03T11:06:53;21.80;63.60
37658;DHT22;23500;53.268;8.308;2022-09-03T11:09:24;21.80;63.50
37658;DHT22;23500;53.268;8.308;2022-09-03T11:11:58;21.80;63.40
37658;DHT22;23500;53.268;8.308;2022-09-03T11:14:43;21.80;63.40
37658;DHT22;23500;53.268;8.308;2022-09-03T11:17:24;21.80;62.90
37658;DHT22;23500;53.268;8.308;2022-09-03T11:19:57;21.80;63.50
37658;DHT22;23500;53.268;8.308;2022-09-03T11:22:28;21.80;63.40
37658;DHT22;23500;53.268;8.308;2022-09-03T11:24:58;21.80;62.20
37658;DHT22;23500;53.268;8.308;2022-09-03T11:30:07;21.80;63.00
37658;DHT22;23500;53.268;8.308;2022-09-03T11:35:25;21.80;63.00
37658;DHT22;23500;53.268;8.308;2022-09-03T11:37:53;21.80;63.20
37658;DHT22;23500;53.268;8.308;2022-09-03T11:40:19;21.80;63.20
37658;DHT22;23500;53.268;8.308;2022-09-03T11:42:46;21.90;63.20
37658;DHT22;23500;53.268;8.308;2022-09-03T11:47:54;21.90;64.00
37658;DHT22;23500;53.268;8.308;2022-09-03T11:50:27;21.90;63.30
37658;DHT22;23500;53.268;8.308;2022-09-03T11:55:33;21.90;63.30
37658;DHT22;23500;53.268;8.308;2022-09-03T11:58:32;21.90;63.30
37658;DHT22;23500;53.268;8.308;2022-09-03T12:01:01;21.90;63.20
37658;DHT22;23500;53.268;8.308;2022-09-03T12:03:29;21.90;63.30
37658;DHT22;23500;53.268;8.308;2022-09-03T12:19:36;21.90;63.40
37658;DHT22;23500;53.268;8.308;2022-09-03T12:22:05;21.90;63.40
37658;DHT22;23500;53.268;8.308;2022-09-03T12:24:31;21.90;63.40
37658;DHT22;23500;53.268;8.308;2022-09-03T12:27:00;21.90;63.30
37658;DHT22;23500;53.268;8.308;2022-09-03T12:29:28;21.90;63.40
37658;DHT22;23500;53.268;8.308;2022-09-03T12:32:03;21.90;63.30
37658;DHT22;23500;53.268;8.308;2022-09-03T12:34:30;21.90;63.40
37658;DHT22;23500;53.268;8.308;2022-09-03T12:36:56;21.90;62.00
37658;DHT22;23500;53.268;8.308;2022-09-03T12:39:27;21.90;63.20
37658;DHT22;23500;53.268;8.308;2022-09-03T12:42:00;21.90;63.30
37658;DHT22;23500;53.268;8.308;2022-09-03T12:49:38;21.90;63.30
37658;DHT22;23500;53.268;8.308;2022-09-03T12:52:58;21.90;60.00
37658;DHT22;23500;53.268;8.308;2022-09-03T13:03:54;21.90;62.80
37658;DHT22;23500;53.268;8.308;2022-09-03T13:06:27;21.90;63.00
37658;DHT22;23500;53.268;8.308;2022-09-03T13:08:58;21.90;62.90
37658;DHT22;23500;53.268;8.308;2022-09-03T13:11:25;21.90;62.70
37658;DHT22;23500;53.268;8.308;2022-09-03T13:32:50;22.00;62.90
37658;DHT22;23500;53.268;8.308;2022-09-03T13:41:05;22.00;63.00
37658;DHT22;23500;53.268;8.308;2022-09-03T13:43:53;22.00;62.90
37658;DHT22;23500;53.268;8.308;2022-09-03T13:46:30;22.00;63.00
37658;DHT22;23500;53.268;8.308;2022-09-03T13:52:40;22.00;63.00
37658;DHT22;23500;53.268;8.308;2022-09-03T13:55:14;22.00;63.00
37658;DHT22;23500;53.268;8.308;2022-09-03T13:57:56;22.00;62.90
37658;DHT22;23500;53.268;8.308;2022-09-03T14:03:31;22.00;63.00
37658;DHT22;23500;53.268;8.308;2022-09-03T14:09:05;22.00;63.00
37658;DHT22;23500;53.268;8.308;2022-09-03T14:17:09;22.00;63.00
37658;DHT22;23500;53.268;8.308;2022-09-03T14:20:03;22.00;62.90
37658;DHT22;23500;53.268;8.308;2022-09-03T14:25:29;22.00;62.90
37658;DHT22;23500;53.268;8.308;2022-09-03T14:28:19;22.00;62.90
37658;DHT22;23500;53.268;8.308;2022-09-03T14:31:17;22.00;62.90
37658;DHT22;23500;53.268;8.308;2022-09-03T14:47:38;22.00;62.90
37658;DHT22;23500;53.268;8.308;2022-09-03T14:53:07;22.00;62.90
37658;DHT22;23500;53.268;8.308;2022-09-03T15:09:27;22.10;62.90
37658;DHT22;23500;53.268;8.308;2022-09-03T15:12:00;22.10;62.70
37658;DHT22;23500;53.268;8.308;2022-09-03T15:17:26;22.00;62.70
37658;DHT22;23500;53.268;8.308;2022-09-03T15:28:10;22.10;62.70
37658;DHT22;23500;53.268;8.308;2022-09-03T15:30:46;22.10;62.70
37658;DHT22;23500;53.268;8.308;2022-09-03T15:33:27;22.00;62.50
37658;DHT22;23500;53.268;8.308;2022-09-03T15:38:51;22.10;62.60
37658;DHT22;23500;53.268;8.308;2022-09-03T15:43:59;22.10;62.10
37658;DHT22;23500;53.268;8.308;2022-09-03T15:46:38;22.10;62.60
37658;DHT22;23500;53.268;8.308;2022-09-03T15:52:08;22.10;62.00
37658;DHT22;23500;53.268;8.308;2022-09-03T16:08:06;22.10;62.50
37658;DHT22;23500;53.268;8.308;2022-09-03T16:10:56;22.10;62.50
37658;DHT22;23500;53.268;8.308;2022-09-03T16:16:14;22.10;63.20
37658;DHT22;23500;53.268;8.308;2022-09-03T16:19:13;22.10;62.60
37658;DHT22;23500;53.268;8.308;2022-09-03T16:24:17;22.10;62.50
37658;DHT22;23500;53.268;8.308;2022-09-03T16:26:57;22.10;63.10
37658;DHT22;23500;53.268;8.308;2022-09-03T16:29:27;22.10;62.40
37658;DHT22;23500;53.268;8.308;2022-09-03T16:32:06;22.10;62.40
37658;DHT22;23500;53.268;8.308;2022-09-03T16:37:45;22.10;62.50
37658;DHT22;23500;53.268;8.308;2022-09-03T16:43:22;22.10;62.70
37658;DHT22;23500;53.268;8.308;2022-09-03T16:51:06;22.10;62.40
37658;DHT22;23500;53.268;8.308;2022-09-03T16:53:55;22.10;62.20
37658;DHT22;23500;53.268;8.308;2022-09-03T17:05:12;22.10;62.40
37658;DHT22;23500;53.268;8.308;2022-09-03T17:15:48;22.10;61.90
37658;DHT22;23500;53.268;8.308;2022-09-03T17:24:18;22.10;61.80
37658;DHT22;23500;53.268;8.308;2022-09-03T17:37:37;22.10;59.70
37658;DHT22;23500;53.268;8.308;2022-09-03T17:45:45;22.10;58.60
37658;DHT22;23500;53.268;8.308;2022-09-03T17:54:13;22.10;55.70
37658;DHT22;23500;53.268;8.308;2022-09-03T17:57:01;22.10;58.10
37658;DHT22;23500;53.268;8.308;2022-09-03T17:59:44;22.20;55.40
37658;DHT22;23500;53.268;8.308;2022-09-03T18:02:23;22.10;55.10
37658;DHT22;23500;53.268;8.308;2022-09-03T18:05:05;22.10;55.00
37658;DHT22;23500;53.268;8.308;2022-09-03T18:07:49;22.10;53.50
37658;DHT22;23500;53.268;8.308;2022-09-03T18:15:59;22.20;53.90
37658;DHT22;23500;53.268;8.308;2022-09-03T18:18:32;22.10;52.60
37658;DHT22;23500;53.268;8.308;2022-09-03T18:21:10;22.20;52.60
37658;DHT22;23500;53.268;8.308;2022-09-03T18:27:00;22.10;51.80
37658;DHT22;23500;53.268;8.308;2022-09-03T18:30:14;22.10;51.80
37658;DHT22;23500;53.268;8.308;2022-09-03T18:32:58;22.10;51.60
37658;DHT22;23500;53.268;8.308;2022-09-03T18:35:43;22.10;51.30
37658;DHT22;23500;53.268;8.308;2022-09-03T18:38:32;22.10;51.50
37658;DHT22;23500;53.268;8.308;2022-09-03T18:48:10;22.10;51.30
37658;DHT22;23500;53.268;8.308;2022-09-03T18:51:17;22.10;51.50
37658;DHT22;23500;53.268;8.308;2022-09-03T18:56:52;22.00;51.80
37658;DHT22;23500;53.268;8.308;2022-09-03T19:09:08;22.00;50.40
37658;DHT22;23500;53.268;8.308;2022-09-03T19:14:58;22.00;50.80
37658;DHT22;23500;53.268;8.308;2022-09-03T19:23:38;22.00;51.80
37658;DHT22;23500;53.268;8.308;2022-09-03T19:51:34;21.90;51.00
37658;DHT22;23500;53.268;8.308;2022-09-03T19:54:23;21.90;51.40
37658;DHT22;23500;53.268;8.308;2022-09-03T19:57:11;21.90;51.50
37658;DHT22;23500;53.268;8.308;2022-09-03T19:59:57;21.80;52.10
37658;DHT22;23500;53.268;8.308;2022-09-03T20:02:46;21.80;51.60
37658;DHT22;23500;53.268;8.308;2022-09-03T20:05:31;21.90;52.40
37658;DHT22;23500;53.268;8.308;2022-09-03T20:08:16;21.80;51.00
37658;DHT22;23500;53.268;8.308;2022-09-03T20:11:02;21.80;51.90
37658;DHT22;23500;53.268;8.308;2022-09-03T20:13:29;21.80;52.10
37658;DHT22;23500;53.268;8.308;2022-09-03T20:21:41;21.80;52.20
37658;DHT22;23500;53.268;8.308;2022-09-03T20:26:59;21.80;51.70
37658;DHT22;23500;53.268;8.308;2022-09-03T20:32:42;21.70;52.30
37658;DHT22;23500;53.268;8.308;2022-09-03T20:51:29;21.70;52.90
37658;DHT22;23500;53.268;8.308;2022-09-03T21:00:15;21.70;53.70
37658;DHT22;23500;53.268;8.308;2022-09-03T21:03:04;21.60;53.30
37658;DHT22;23500;53.268;8.308;2022-09-03T21:05:45;21.60;53.70
37658;DHT22;23500;53.268;8.308;2022-09-03T21:08:38;21.60;53.70
37658;DHT22;23500;53.268;8.308;2022-09-03T21:24:49;21.50;54.00
37658;DHT22;23500;53.268;8.308;2022-09-03T21:27:21;21.50;54.60
37658;DHT22;23500;53.268;8.308;2022-09-03T21:30:10;21.50;54.40
37658;DHT22;23500;53.268;8.308;2022-09-03T21:32:46;21.50;52.50
37658;DHT22;23500;53.268;8.308;2022-09-03T21:35:27;21.50;53.30
37658;DHT22;23500;53.268;8.308;2022-09-03T21:38:06;21.50;54.50
37658;DHT22;23500;53.268;8.308;2022-09-03T21:40:37;21.50;54.30
37658;DHT22;23500;53.268;8.308;2022-09-03T21:43:31;21.40;55.30
37658;DHT22;23500;53.268;8.308;2022-09-03T21:49:04;21.40;53.90
37658;DHT22;23500;53.268;8.308;2022-09-03T21:51:44;21.40;54.70
37658;DHT22;23500;53.268;8.308;2022-09-03T21:54:26;21.40;54.70
37658;DHT22;23500;53.268;8.308;2022-09-03T21:59:57;21.40;55.00
37658;DHT22;23500;53.268;8.308;2022-09-03T22:02:28;21.40;54.10
37658;DHT22;23500;53.268;8.308;2022-09-03T22:04:55;21.40;54.60
37658;DHT22;23500;53.268;8.308;2022-09-03T22:13:30;21.40;55.30
37658;DHT22;23500;53.268;8.308;2022-09-03T22:16:20;21.40;55.10
37658;DHT22;23500;53.268;8.308;2022-09-03T22:18:47;21.30;56.60
37658;DHT22;23500;53.268;8.308;2022-09-03T22:43:27;21.30;55.00
37658;DHT22;23500;53.268;8.308;2022-09-03T22:46:12;21.30;55.40
37658;DHT22;23500;53.268;8.308;2022-09-03T22:49:13;21.30;55.10
37658;DHT22;23500;53.268;8.308;2022-09-03T22:52:01;21.30;55.50
37658;DHT22;23500;53.268;8.308;2022-09-03T22:57:13;21.30;56.00
37658;DHT22;23500;53.268;8.308;2022-09-03T22:59:43;21.30;57.00
37658;DHT22;23500;53.268;8.308;2022-09-03T23:02:14;21.20;55.80
37658;DHT22;23500;53.268;8.308;2022-09-03T23:10:52;21.20;53.90
37658;DHT22;23500;53.268;8.308;2022-09-03T23:13:24;21.20;55.00
37658;DHT22;23500;53.268;8.308;2022-09-03T23:16:06;21.20;55.30
37658;DHT22;23500;53.268;8.308;2022-09-03T23:18:34;21.20;56.00
37658;DHT22;23500;53.268;8.308;2022-09-03T23:21:06;21.20;55.40
37658;DHT22;23500;53.268;8.308;2022-09-03T23:23:45;21.10;54.70
37658;DHT22;23500;53.268;8.308;2022-09-03T23:26:20;21.10;55.90
37658;DHT22;23500;53.268;8.308;2022-09-03T23:29:08;21.10;55.20